Flight Track Log - Related Links

Times and Time Zones

All times are in EDT time to prevent confusion due to time zone crossing. See the OPT732 flight status page for this flight to view local times or setup timezone preferences in your user account.

Time Position Orientation Groundspeed Altitude Reporting Facility
EDT Latitude Longitude Course Direction KTS MPH feet Rate Location/Type
Wed 02:59:49 PM 36.8986 -111.3594 81° East 224 258 9,100  Level Denver Center
Wed 03:00:00 PM 37.2379 -110.5541 65° Northeast  Level FlightAware Approximate
Wed 03:00:51 PM 36.9325 -111.2722 64° Northeast 248 285 11,300  Level Denver Center
Wed 03:01:00 PM 37.2915 -110.4068 65° Northeast  Level FlightAware Approximate
Wed 03:01:52 PM 36.9636 -111.1650 70° East 311 358 14,500  Level Denver Center
Wed 03:02:00 PM 37.3420 -110.2575 67° East  Level FlightAware Approximate
Wed 03:02:54 PM 36.9956 -111.0503 71° East 343 395 18,000  Level Denver Center
Wed 03:03:00 PM 37.3975 -110.1113 62° Northeast  Level FlightAware Approximate
Wed 03:03:56 PM 37.0242 -110.9358 73° East 346 398 21,200  Level Denver Center
Wed 03:04:00 PM 37.4508 -109.9636 72° East  Level FlightAware Approximate
Wed 03:04:58 PM 37.0625 -110.7947 71° East 359 413 24,000  Level Denver Center
Wed 03:05:59 PM 37.0939 -110.6681 73° East 381 438 26,100 2,049 Climbing Denver Center
Wed 03:07:01 PM 37.1283 -110.5369 72° East 396 456 28,200 2,032 Climbing Denver Center
Wed 03:08:03 PM 37.1631 -110.4008 72° East 410 472 30,300 1,984 Climbing Denver Center
Wed 03:09:05 PM 37.1992 -110.2619 72° East 422 486 32,300 1,805 Climbing Denver Center
Wed 03:10:06 PM 37.2392 -110.1039 72° East 433 498 34,000 1,366 Climbing Denver Center
Wed 03:11:08 PM 37.2756 -109.9589 72° East 453 521 35,100 1,113 Climbing Denver Center
Wed 03:12:10 PM 37.3183 -109.7850 73° East 466 536 36,300 1,113 Climbing Denver Center
Wed 03:13:12 PM 37.3572 -109.6322 72° East 476 548 37,400 1,024 Climbing Denver Center
Wed 03:14:13 PM 37.3947 -109.4775 73° East 480 552 38,400 1,073 Climbing Denver Center
Wed 03:15:15 PM 37.4400 -109.2961 72° East 484 557 39,600 1,113 Climbing Denver Center
Wed 03:16:17 PM 37.4769 -109.1422 73° East 480 552 40,700 677 Climbing Denver Center
Wed 03:17:19 PM 37.5208 -108.9658 73° East 475 547 41,000 146 Climbing Denver Center
Wed 03:18:20 PM 37.5589 -108.8058 73° East 492 566 41,000  Level Denver Center
Wed 03:19:22 PM 37.6036 -108.6153 73° East 503 579 41,000  Level Denver Center
Wed 03:20:24 PM 37.6428 -108.4539 73° East 502 578 41,000  Level Denver Center
Wed 03:21:26 PM 37.6811 -108.2903 73° East 504 580 41,000  Level Denver Center
Wed 03:22:28 PM 37.7253 -108.0978 74° East 509 586 41,000  Level Denver Center
Wed 03:23:29 PM 37.7642 -107.9325 73° East 511 588 41,000  Level Denver Center
Wed 03:24:31 PM 37.8086 -107.7386 74° East 512 589 41,000  Level Denver Center
Wed 03:25:32 PM 37.8408 -107.6000 74° East 513 590 41,000  Level Denver Center
Wed 03:26:35 PM 37.8914 -107.3750 74° East 518 596 41,000  Level Denver Center
Wed 03:27:36 PM 37.9289 -107.2056 74° East 521 600 41,000 98 Level Denver Center
Wed 03:28:38 PM 37.9694 -107.0283 74° East 521 600 41,200 435 Climbing Denver Center
Wed 03:29:40 PM 38.0122 -106.8328 74° East 517 595 41,900 629 Climbing Denver Center
Wed 03:30:42 PM 38.0483 -106.6664 75° East 514 592 42,500 629 Climbing Denver Center
Wed 03:31:44 PM 38.0872 -106.4917 74° East 504 580 43,200 683 Climbing Denver Center
Wed 03:32:45 PM 38.1233 -106.3228 75° East 498 573 43,900 537 Climbing Denver Center
Wed 03:33:47 PM 38.1586 -106.1572 75° East 486 559 44,300 484 Climbing Denver Center
Wed 03:34:49 PM 38.1994 -105.9711 74° East 488 562 44,900 339 Climbing Denver Center
Wed 03:35:51 PM 38.2319 -105.8139 75° East 483 556 45,000 49 Climbing Denver Center
Wed 03:36:52 PM 38.2706 -105.6289 75° East 484 557 45,000  Level Denver Center
Wed 03:37:54 PM 38.3042 -105.4678 75° East 489 563 45,000  Level Denver Center
Wed 03:38:56 PM 38.3444 -105.2769 75° East 497 572 45,000  Level Denver Center
Wed 03:39:58 PM 38.3772 -105.1139 76° East 497 572 45,000  Level Denver Center
Wed 03:41:00 PM 38.4097 -104.9506 76° East 496 571 45,000  Level Denver Center
Wed 03:42:01 PM 38.4489 -104.7581 75° East 499 574 45,000  Level Denver Center
Wed 03:43:15 PM 38.4822 -104.5919 76° East 503 579 45,000  Level Denver Center
Wed 03:44:17 PM 38.5431 -104.3806 70° East 496 571 45,000  Level Denver Center
Wed 03:45:19 PM 38.6000 -104.2247 65° Northeast 500 575 45,000  Level Denver Center
Wed 03:46:21 PM 38.6678 -104.0458 64° Northeast 500 575 45,000  Level Denver Center
Wed 03:47:23 PM 38.7244 -103.8906 65° Northeast 501 577 45,000  Level Denver Center
Wed 03:48:24 PM 38.7728 -103.7619 64° Northeast 501 577 45,000  Level Denver Center
Wed 03:49:26 PM 38.8483 -103.5533 65° Northeast 504 580 45,000  Level Denver Center
Wed 03:50:28 PM 38.9153 -103.3725 65° Northeast 503 579 45,000  Level Denver Center
Wed 03:51:42 PM 38.9722 -103.2164 65° Northeast 504 580 45,000  Level Denver Center
Wed 03:52:44 PM 39.0575 -103.0142 61° Northeast 504 580 45,000  Level Denver Center
Wed 03:53:46 PM 39.1133 -102.8597 65° Northeast 497 572 45,000  Level Denver Center
Wed 03:54:48 PM 39.1494 -102.6847 75° East 494 568 45,000  Level Denver Center
Wed 03:55:49 PM 39.1781 -102.5472 75° East 495 570 45,000  Level Denver Center
Wed 03:56:51 PM 39.2244 -102.3294 75° East 494 568 45,000  Level Denver Center
Wed 03:57:53 PM 39.2583 -102.1683 75° East 488 562 45,000  Level Denver Center
Wed 03:58:55 PM 39.2978 -101.9783 75° East 489 563 45,000  Level Denver Center
Wed 03:59:56 PM 39.3314 -101.8217 74° East 484 557 45,000  Level Denver Center
Wed 04:00:58 PM 39.3697 -101.6336 75° East 484 557 45,000  Level Denver Center
Wed 04:02:00 PM 39.4025 -101.4728 75° East 484 557 45,000  Level Denver Center
Wed 04:03:02 PM 39.4411 -101.2833 75° East 487 560 45,000  Level Denver Center
Wed 04:04:03 PM 39.4733 -101.1208 76° East 489 563 45,000  Level Denver Center
Wed 04:05:05 PM 39.5119 -100.9306 75° East 490 564 45,000  Level Denver Center
Wed 04:06:07 PM 39.5444 -100.7689 75° East 488 562 45,000  Level Denver Center
Wed 04:07:09 PM 39.5814 -100.5750 76° East 496 571 45,000  Level Denver Center
Wed 04:08:11 PM 39.6139 -100.4100 76° East 497 572 45,000  Level Denver Center
Wed 04:09:12 PM 39.6506 -100.2164 76° East 496 571 45,000  Level Denver Center
Wed 04:10:14 PM 39.6831 -100.0514 76° East 496 571 45,000  Level Denver Center
Wed 04:11:16 PM 39.7167 -99.8714 76° East 492 566 45,000  Level Denver Center
Wed 04:12:18 PM 39.7497 -99.6961 76° East 498 573 45,000  Level Denver Center
Wed 04:13:32 PM 39.7889 -99.4869 76° East 498 573 45,000  Level Denver Center
Wed 04:14:34 PM 39.8203 -99.3128 77° East 496 571 45,000  Level Denver Center
Wed 04:15:35 PM 39.8453 -99.1731 77° East 497 572 45,000  Level Denver Center
Wed 04:16:37 PM 39.8894 -98.9300 77° East 494 568 45,000  Level Denver Center
Wed 04:18:29 PM 39.9444 -98.6194 77° East 494 568 45,000  Level Minneapolis Center
Wed 04:19:31 PM 39.9747 -98.4461 77° East 493 567 45,000  Level Minneapolis Center
Wed 04:20:33 PM 40.0050 -98.2742 77° East 490 564 45,000  Level Minneapolis Center
Wed 04:21:35 PM 40.0350 -98.1003 77° East 493 567 45,000  Level Minneapolis Center
Wed 04:22:37 PM 40.0703 -97.8917 77° East 493 567 45,000  Level Minneapolis Center
Wed 04:23:39 PM 40.1000 -97.7178 77° East 492 566 45,000  Level Minneapolis Center
Wed 04:24:41 PM 40.1286 -97.5422 78° East 494 568 45,000  Level Minneapolis Center
Wed 04:25:43 PM 40.1578 -97.3675 78° East 494 568 45,000  Level Minneapolis Center
Wed 04:26:45 PM 40.1894 -97.1711 78° East 491 565 45,000  Level Minneapolis Center
Wed 04:27:48 PM 40.2186 -96.9964 78° East 493 567 45,000  Level Minneapolis Center
Wed 04:28:50 PM 40.2469 -96.8217 78° East 493 567 45,000  Level Minneapolis Center
Wed 04:29:52 PM 40.2750 -96.6464 78° East 493 567 45,000  Level Minneapolis Center
Wed 04:30:54 PM 40.3014 -96.4697 79° East 495 570 45,000  Level Minneapolis Center
Wed 04:31:56 PM 40.3292 -96.2933 78° East 496 571 45,000  Level Minneapolis Center
Wed 04:32:58 PM 40.3611 -96.0833 79° East 494 568 45,000  Level Minneapolis Center
Wed 04:34:00 PM 40.3886 -95.9047 79° East 499 574 45,000  Level Minneapolis Center
Wed 04:35:00 PM 40.4079 -95.7391 79° East  Level Estimated
Wed 04:36:04 PM 40.4419 -95.5511 79° East 495 570 45,000  Level Minneapolis Center
Wed 04:37:06 PM 40.4672 -95.3764 79° East 493 567 45,000  Level Minneapolis Center
Wed 04:38:08 PM 40.4989 -95.1644 79° East 494 568 45,000  Level Minneapolis Center
Wed 04:39:10 PM 40.5247 -94.9872 79° East 494 568 45,000  Level Minneapolis Center
Wed 04:40:13 PM 40.5494 -94.8106 80° East 494 568 45,000  Level Minneapolis Center
Wed 04:41:15 PM 40.5736 -94.6344 80° East 492 566 45,000  Level Minneapolis Center
Wed 04:42:17 PM 40.5994 -94.4461 80° East 493 567 45,000  Level Minneapolis Center
Wed 04:43:19 PM 40.6242 -94.2689 80° East 494 568 45,000  Level Minneapolis Center
Wed 04:44:21 PM 40.6478 -94.0928 80° East 494 568 45,000  Level Minneapolis Center
Wed 04:45:23 PM 40.6753 -93.8797 80° East 495 570 45,000  Level Minneapolis Center
Wed 04:46:25 PM 40.6994 -93.7011 80° East 498 573 45,000  Level Minneapolis Center
Wed 04:47:27 PM 40.7219 -93.5236 80° East 495 570 45,000  Level Minneapolis Center
Wed 04:48:29 PM 40.7417 -93.3786 80° East 499 574 45,000  Level Minneapolis Center
Wed 04:50:33 PM 40.7908 -92.9806 81° East 502 578 45,000  Level Minneapolis Center
Wed 04:51:36 PM 40.8181 -92.7633 81° East 501 577 45,000  Level Minneapolis Center
Wed 04:51:52 PM 40.8222 -92.7264 82° East 499 574 45,000  Level Chicago Center
Wed 04:52:54 PM 40.8436 -92.5450 81° East 500 575 45,000  Level Chicago Center
Wed 04:53:56 PM 40.8656 -92.3639 81° East 500 575 45,000  Level Chicago Center
Wed 04:54:58 PM 40.8861 -92.1836 81° East 499 574 45,000  Level Chicago Center
Wed 04:56:01 PM 40.9117 -91.9667 81° East 500 575 45,000  Level Chicago Center
Wed 04:57:03 PM 40.9317 -91.7867 82° East 498 573 45,000  Level Chicago Center
Wed 04:58:05 PM 40.9533 -91.6056 81° East 501 577 45,000  Level Chicago Center
Wed 04:59:07 PM 40.9725 -91.4256 82° East 498 573 45,000  Level Chicago Center
Wed 05:00:09 PM 40.9942 -91.2281 82° East 500 575 45,000  Level Chicago Center
Wed 05:01:11 PM 41.0147 -91.0442 82° East 502 578 45,000  Level Chicago Center
Wed 05:02:13 PM 41.0328 -90.8611 82° East 501 577 45,000  Level Chicago Center
Wed 05:03:15 PM 41.0531 -90.6775 82° East 504 580 45,000  Level Chicago Center
Wed 05:04:17 PM 41.0756 -90.4569 82° East 502 578 45,000  Level Chicago Center
Wed 05:05:19 PM 41.0939 -90.2728 82° East 502 578 45,000  Level Chicago Center
Wed 05:06:21 PM 41.1119 -90.0894 82° East 499 574 45,000  Level Chicago Center
Wed 05:07:24 PM 41.1300 -89.9044 83° East 501 577 45,000  Level Chicago Center
Wed 05:08:26 PM 41.1483 -89.7189 82° East 502 578 45,000  Level Chicago Center
Wed 05:09:28 PM 41.1756 -89.5361 79° East 504 580 45,000  Level Chicago Center
Wed 05:10:30 PM 41.2289 -89.3672 67° East 494 568 45,000  Level Chicago Center
Wed 05:11:32 PM 41.2856 -89.1806 68° East 495 570 45,000  Level Chicago Center
Wed 05:12:34 PM 41.3375 -89.0133 67° East 494 568 45,000  Level Chicago Center
Wed 05:13:36 PM 41.3889 -88.8425 68° East 497 572 45,000  Level Chicago Center
Wed 05:14:38 PM 41.4508 -88.6375 68° East 501 577 45,000  Level Chicago Center
Wed 05:15:41 PM 41.5028 -88.4647 68° East 503 579 45,000  Level Chicago Center
Wed 05:16:43 PM 41.5486 -88.2897 71° East 504 580 45,000  Level Chicago Center
Wed 05:17:45 PM 41.5725 -88.1022 80° East 504 580 45,000  Level Chicago Center
Wed 05:18:47 PM 41.5950 -87.9122 81° East 510 587 45,000  Level Chicago Center
Wed 05:19:49 PM 41.6156 -87.7256 82° East 507 583 45,000  Level Chicago Center
Wed 05:20:51 PM 41.6369 -87.5400 81° East 506 582 45,000  Level Chicago Center
Wed 05:21:53 PM 41.6622 -87.3147 81° East 511 588 45,000  Level Chicago Center
Wed 05:22:55 PM 41.6825 -87.1281 82° East 511 588 45,000  Level Chicago Center
Wed 05:23:57 PM 41.7031 -86.9439 81° East 505 581 45,000  Level Chicago Center
Wed 05:24:59 PM 41.7239 -86.7583 81° East 507 583 45,000  Level Chicago Center
Wed 05:26:02 PM 41.7422 -86.5719 82° East 511 588 45,000  Level Chicago Center
Wed 05:27:04 PM 41.7608 -86.3861 82° East 507 583 45,000  Level Chicago Center
Wed 05:28:06 PM 41.7836 -86.1631 82° East 505 581 45,000  Level Chicago Center
Wed 05:29:08 PM 41.8031 -85.9786 82° East 500 575 45,000  Level Chicago Center
Wed 05:30:10 PM 41.8219 -85.7936 82° East 499 574 45,000  Level Chicago Center
Wed 05:31:12 PM 41.8414 -85.6053 82° East 503 579 45,000  Level Chicago Center
Wed 05:32:14 PM 41.8606 -85.4156 82° East 504 580 45,000  Level Chicago Center
Wed 05:33:16 PM 41.8783 -85.2275 83° East 502 578 45,000  Level Chicago Center
Wed 05:34:18 PM 41.8967 -85.0442 82° East 496 571 45,000  Level Chicago Center
Wed 05:35:20 PM 41.9161 -84.8586 82° East 500 575 45,000  Level Chicago Center
Wed 05:36:23 PM 41.9375 -84.6389 82° East 494 568 45,000  Level Chicago Center
Wed 05:37:22 PM 41.9550 -84.4561 83° East 496 571 45,000  Level Cleveland Center
Wed 05:38:22 PM 41.9722 -84.3119 81° East 496 571 45,000  Level Cleveland Center
Wed 05:39:22 PM 41.9847 -84.1172 85° East 490 564 45,000  Level Cleveland Center
Wed 05:40:22 PM 42.0028 -83.9308 83° East 495 570 45,000  Level Cleveland Center
Wed 05:41:22 PM 42.0186 -83.7444 83° East 495 570 45,000  Level Cleveland Center
Wed 05:42:22 PM 42.0381 -83.5581 82° East 500 575 45,000  Level Cleveland Center
Wed 05:43:22 PM 42.0514 -83.3628 85° East 515 593 45,000  Level Cleveland Center
Wed 05:44:21 PM 42.0578 -83.1728 87° East 515 593 45,000  Level Cleveland Center
Wed 05:45:21 PM 42.0683 -82.9858 86° East 510 587 45,000  Level Cleveland Center
Wed 05:46:22 PM 42.0806 -82.7794 85° East 510 587 45,000  Level Cleveland Center
Wed 05:47:22 PM 42.0839 -82.6003 89° East 497 572 45,000  Level Cleveland Center
Wed 05:48:22 PM 42.0911 -82.4158 87° East 492 566 45,000  Level Cleveland Center
Wed 05:49:22 PM 42.1067 -82.2317 83° East 490 564 45,000  Level Cleveland Center
Wed 05:50:22 PM 42.1111 -82.0525 88° East 490 564 45,000  Level Cleveland Center
Wed 05:51:22 PM 42.1175 -81.8708 87° East 484 557 45,000  Level Cleveland Center
Wed 05:52:22 PM 42.1211 -81.7086 88° East 484 557 45,000  Level Cleveland Center
Wed 05:53:22 PM 42.1292 -81.5322 86° East 477 549 45,000  Level Cleveland Center
Wed 05:54:22 PM 42.1344 -81.3503 88° East 477 549 45,000  Level Cleveland Center
Wed 05:55:22 PM 42.1419 -81.1711 87° East 477 549 45,000  Level Cleveland Center
Wed 05:56:22 PM 42.1447 -80.9947 89° East 477 549 45,000  Level Cleveland Center
Wed 05:57:22 PM 42.1494 -80.7961 88° East 472 543 45,000  Level Cleveland Center
Wed 05:58:22 PM 42.1581 -80.6253 86° East 478 550 45,000  Level Cleveland Center
Wed 05:59:22 PM 42.1619 -80.4458 88° East 473 544 45,000  Level Cleveland Center
Wed 06:00:22 PM 42.1658 -80.2667 88° East 478 550 45,000  Level Cleveland Center
Wed 06:01:22 PM 42.1694 -80.0931 88° East 473 544 45,000  Level Cleveland Center
Wed 06:02:22 PM 42.1750 -79.9331 87° East 473 544 45,000  Level Cleveland Center
Wed 06:03:22 PM 42.1781 -79.7567 89° East 468 539 45,000 -400 Level Cleveland Center
Wed 06:04:22 PM 42.1808 -79.5800 89° East 468 539 44,200 -1,150 Descending Cleveland Center
Wed 06:05:22 PM 42.1833 -79.4006 89° East 468 539 42,700 -1,500 Descending Cleveland Center
Wed 06:06:22 PM 42.1875 -79.2183 88° East 478 550 41,200 -1,350 Descending Cleveland Center
Wed 06:07:22 PM 42.1683 -79.0339 98° East 478 550 40,000 -1,050 Descending Cleveland Center
Wed 06:08:22 PM 42.1264 -78.8614 108° East 478 550 39,100 -800 Descending Cleveland Center
Wed 06:09:22 PM 42.0822 -78.6975 110° East 478 550 38,400 -1,050 Descending Cleveland Center
Wed 06:10:22 PM 42.0397 -78.5283 109° East 473 544 37,000 -1,400 Descending Cleveland Center
Wed 06:11:22 PM 41.9947 -78.3619 110° East 473 544 35,600 -1,000 Descending Cleveland Center
Wed 06:12:22 PM 41.9542 -78.1986 108° East 467 537 35,000 -300 Descending Cleveland Center
Wed 06:13:22 PM 41.9153 -78.0411 108° East 455 524 35,000 -1,164 Level Cleveland Center
Wed 06:15:07 PM 41.8422 -77.7678 110° East 433 498 31,800 -2,098 Descending New York Center
Wed 06:16:05 PM 41.8061 -77.6358 110° East 406 467 29,300 -1,424 Descending New York Center
Wed 06:17:05 PM 41.7739 -77.5072 109° East 377 434 29,000 -150 Descending New York Center
Wed 06:18:05 PM 41.7394 -77.3786 110° East 366 421 29,000  Level New York Center
Wed 06:19:06 PM 41.7028 -77.2500 111° Southeast 366 421 29,000  Level New York Center
Wed 06:20:07 PM 41.6550 -77.1344 119° Southeast 366 421 29,000  Level New York Center
Wed 06:21:07 PM 41.6067 -77.0242 120° Southeast 356 410 29,000 -857 Level New York Center
Wed 06:22:06 PM 41.5600 -76.9228 122° Southeast 336 387 27,300 -1,916 Descending New York Center
Wed 06:23:06 PM 41.5133 -76.8133 120° Southeast 336 387 25,200 -1,636 Descending New York Center
Wed 06:24:07 PM 41.4769 -76.7103 115° Southeast 328 377 24,000 -1,780 Descending New York Center
Wed 06:25:04 PM 41.4406 -76.6047 115° Southeast 317 365 21,700 -2,288 Descending New York Center
Wed 06:26:05 PM 41.4133 -76.5222 114° Southeast 311 358 19,500 -1,835 Descending New York Center
Wed 06:27:05 PM 41.3756 -76.4000 112° Southeast 298 343 18,000 -744 Descending New York Center
Wed 06:28:06 PM 41.3531 -76.2986 106° East 287 330 18,000  Level New York Center
Wed 06:29:04 PM 41.3178 -76.2100 118° Southeast 293 337 18,000  Level New York Center
Wed 06:30:07 PM 41.2742 -76.1128 121° Southeast 307 353 18,000  Level New York Center
Wed 06:31:05 PM 41.2717 -75.9828 91° East 318 366 18,000 -102 Level New York Center
Wed 06:32:05 PM 41.2733 -75.8503 89° East 341 392 17,800 -850 Descending New York Center
Wed 06:33:05 PM 41.2725 -75.7233 90° East 341 392 16,300 -1,475 Descending New York Center
Wed 06:34:07 PM 41.2478 -75.6111 106° East 331 381 14,800 -1,600 Descending New York Center
Wed 06:35:05 PM 41.2089 -75.4925 114° Southeast 314 361 13,100 -1,261 Descending New York Center
Wed 06:36:06 PM 41.1733 -75.3881 114° Southeast 309 356 12,300 -1,091 Descending New York Center
Wed 06:37:06 PM 41.1397 -75.2919 115° Southeast 296 341 10,900 -1,361 Descending New York Center
Wed 06:38:05 PM 41.1117 -75.2075 114° Southeast 283 326 9,600 -1,361 Descending New York Center
Wed 06:39:05 PM 41.0797 -75.1119 114° Southeast 288 331 8,200 -1,488 Descending New York Center
Wed 06:40:06 PM 41.0458 -75.0161 115° Southeast 277 319 6,600 -1,091 Descending New York Center
Wed 06:41:06 PM 41.0153 -74.9317 116° Southeast 259 298 6,000 -1,190 Descending New York Center
Wed 06:42:07 PM 40.9869 -74.8503 115° Southeast 259 298 4,200 -966 Descending New York Center
Wed 06:43:04 PM 40.9547 -74.7603 115° Southeast 259 298 4,100 -458 Descending New York Center
Wed 06:44:05 PM 40.9281 -74.6847 115° Southeast 253 291 3,300 -496 Descending New York Center
Wed 06:45:05 PM 40.8975 -74.5978 115° Southeast 241 277 3,100 -98 Descending New York Center
Wed 06:46:07 PM 40.8708 -74.5222 115° Southeast 236 272 3,100  Level New York Center
Wed 06:46:29 PM 40.8667 -74.5000 104° East 233 268 3,100  Level New York TRACON
Wed 06:47:29 PM 40.8333 -74.4167 118° Southeast 244 281 3,100  Level New York TRACON
Wed 06:48:23 PM 40.8000 -74.3333 118° Southeast 248 285 3,100 -526 Level New York TRACON
Wed 06:49:23 PM 40.7667 -74.2833 131° Southeast 198 228 2,100 -619 Descending New York TRACON
Wed 06:50:29 PM 40.7667 -74.2167 90° East 186 214 1,800 -143 Descending New York TRACON
Wed 06:51:29 PM 40.7833 -74.1500 72° East 186 214 1,800 -350 Level New York TRACON
Wed 06:52:29 PM 40.8167 -74.1167 37° Northeast 158 182 1,100 -619 Descending New York TRACON
Wed 06:54:04 PM 40.8556 -74.0578 49° Northeast 153 176 200 -568 Descending New York Center
Wed 06:56:00 PM 40.8500 -74.0500 North  Level FlightAware Approximate

Login

Don't have an account? Register now (free) for customized features, flight alerts, and more!